createdAt,value
2022-12-12T00:00:24.767Z,0.50
2022-12-12T00:02:52.752Z,0.50
2022-12-12T00:08:51.111Z,0.40
2022-12-12T00:11:19.448Z,0.20
2022-12-12T00:13:47.458Z,0.40
2022-12-12T00:16:15.617Z,0.40
2022-12-12T00:18:43.559Z,0.40
2022-12-12T00:21:14.128Z,0.40
2022-12-12T00:23:42.055Z,0.40
2022-12-12T00:26:16.094Z,0.30
2022-12-12T00:28:43.912Z,0.30
2022-12-12T00:31:11.770Z,0.40
2022-12-12T00:33:39.663Z,0.40
2022-12-12T00:36:07.856Z,0.40
2022-12-12T00:38:35.749Z,0.20
2022-12-12T00:41:05.065Z,0.20
2022-12-12T00:43:34.656Z,0.00
2022-12-12T00:46:02.520Z,0.10
2022-12-12T00:48:30.535Z,0.20
2022-12-12T00:50:58.564Z,0.20
2022-12-12T00:53:26.401Z,0.10
2022-12-12T00:55:57.875Z,0.10
2022-12-12T00:58:25.835Z,0.10
2022-12-12T01:00:55.370Z,0.10
2022-12-12T01:03:23.338Z,0.20
2022-12-12T01:05:51.230Z,0.60
2022-12-12T01:08:19.074Z,0.20
2022-12-12T01:10:46.967Z,0.20
2022-12-12T01:13:14.774Z,0.10
2022-12-12T01:15:42.684Z,0.10
2022-12-12T01:18:11.936Z,0.20
2022-12-12T01:20:39.788Z,0.10
2022-12-12T01:23:07.699Z,0.10
2022-12-12T01:25:35.547Z,0.00
2022-12-12T01:28:03.432Z,-0.10
2022-12-12T01:30:31.340Z,-0.10
2022-12-12T01:32:59.194Z,0.00
2022-12-12T01:35:28.844Z,0.00
2022-12-12T01:37:56.694Z,0.00
2022-12-12T01:40:25.591Z,-0.10
2022-12-12T01:42:53.969Z,0.30
2022-12-12T01:45:40.105Z,-0.10
2022-12-12T01:48:07.952Z,-0.20
2022-12-12T01:50:37.156Z,-0.20
2022-12-12T01:53:04.988Z,-0.30
2022-12-12T01:55:32.884Z,-0.20
2022-12-12T01:58:00.817Z,-0.20
2022-12-12T02:00:28.754Z,-0.20
2022-12-12T02:02:57.606Z,-0.40
2022-12-12T02:05:27.766Z,-0.50
2022-12-12T02:07:58.136Z,-0.40
2022-12-12T02:10:26.054Z,-0.40
2022-12-12T02:12:54.935Z,-0.40
2022-12-12T02:15:22.949Z,-0.40
2022-12-12T02:17:55.241Z,-0.40
2022-12-12T02:20:41.047Z,0.00
2022-12-12T02:23:19.765Z,-0.40
2022-12-12T02:26:03.704Z,-0.50
2022-12-12T02:29:01.415Z,-0.40
2022-12-12T02:31:32.840Z,-0.40
2022-12-12T02:34:02.579Z,-0.40
2022-12-12T02:36:34.083Z,-0.40
2022-12-12T02:39:07.532Z,-0.40
2022-12-12T02:41:38.737Z,-0.40
2022-12-12T02:44:09.288Z,-0.50
2022-12-12T02:46:40.388Z,-0.40
2022-12-12T02:49:10.824Z,-0.50
2022-12-12T02:51:39.377Z,-0.50
2022-12-12T02:54:14.233Z,-0.50
2022-12-12T02:56:49.637Z,-0.50
2022-12-12T02:59:20.221Z,-0.50
2022-12-12T03:01:55.245Z,-0.40
2022-12-12T03:04:44.377Z,-0.50
2022-12-12T03:07:30.265Z,-0.10
2022-12-12T03:10:03.294Z,-0.10
2022-12-12T03:12:35.011Z,-0.60
2022-12-12T03:15:05.933Z,-0.60
2022-12-12T03:17:39.789Z,-0.60
2022-12-12T03:20:12.409Z,-0.30
2022-12-12T03:22:44.266Z,-0.50
2022-12-12T03:25:15.524Z,-0.60
2022-12-12T03:27:46.137Z,-0.20
2022-12-12T03:30:15.794Z,-0.70
2022-12-12T03:32:46.775Z,-0.80
2022-12-12T03:35:16.577Z,-0.70
2022-12-12T03:37:46.648Z,-0.70
2022-12-12T03:40:16.240Z,-0.70
2022-12-12T03:42:47.588Z,-0.70
2022-12-12T03:45:18.810Z,-0.70
2022-12-12T03:47:50.549Z,-0.70
2022-12-12T03:50:20.581Z,-0.70
2022-12-12T03:52:51.242Z,-0.70
2022-12-12T03:55:22.114Z,-0.50
2022-12-12T03:57:53.453Z,-0.70
2022-12-12T04:00:21.395Z,-0.70
2022-12-12T04:02:52.165Z,-0.70
2022-12-12T04:05:21.452Z,-0.70
2022-12-12T04:07:53.064Z,-0.70
2022-12-12T04:10:39.295Z,-0.70
2022-12-12T04:13:10.849Z,-0.70
2022-12-12T04:15:59.365Z,-0.70
2022-12-12T04:18:31.995Z,-0.80
2022-12-12T04:21:23.445Z,-0.80
2022-12-12T04:23:56.501Z,-0.80
2022-12-12T04:26:43.140Z,-0.80
2022-12-12T04:29:18.193Z,-0.80
2022-12-12T04:31:49.822Z,-0.80
2022-12-12T04:34:23.006Z,-0.80
2022-12-12T04:36:51.238Z,-0.80
2022-12-12T04:39:20.699Z,-0.90
2022-12-12T04:41:49.608Z,-1.00
2022-12-12T04:44:18.816Z,-1.00
2022-12-12T04:46:49.261Z,-0.90
2022-12-12T04:49:19.089Z,-0.90
2022-12-12T04:51:51.740Z,-0.90
2022-12-12T04:54:22.568Z,-0.90
2022-12-12T04:56:53.578Z,-0.90
2022-12-12T04:59:21.523Z,-1.00
2022-12-12T05:01:53.809Z,-1.00
2022-12-12T05:04:24.496Z,-1.00
2022-12-12T05:06:56.186Z,-1.00
2022-12-12T05:09:24.067Z,-0.70
2022-12-12T05:11:51.917Z,-1.10
2022-12-12T05:14:20.432Z,-1.20
2022-12-12T05:16:50.865Z,-1.20
2022-12-12T05:19:18.786Z,-1.10
2022-12-12T05:21:46.663Z,-1.20
2022-12-12T05:24:15.854Z,-1.10
2022-12-12T05:26:43.735Z,-1.20
2022-12-12T05:29:11.959Z,-1.10
2022-12-12T05:31:39.873Z,-1.10
2022-12-12T05:34:07.785Z,-1.10
2022-12-12T05:36:35.645Z,-1.10
2022-12-12T05:39:03.508Z,-1.10
2022-12-12T05:41:32.729Z,-1.10
2022-12-12T05:44:00.632Z,-1.10
2022-12-12T05:46:28.514Z,-1.20
2022-12-12T05:48:56.889Z,-1.20
2022-12-12T05:51:25.308Z,-1.20
2022-12-12T05:53:53.201Z,-1.30
2022-12-12T05:56:21.078Z,-1.20
2022-12-12T05:58:50.256Z,-1.10
2022-12-12T06:01:18.139Z,-1.10
2022-12-12T06:03:45.992Z,-1.10
2022-12-12T06:06:13.859Z,-1.30
2022-12-12T06:08:41.745Z,-1.00
2022-12-12T06:11:09.816Z,-1.30
2022-12-12T06:13:38.026Z,-1.20
2022-12-12T06:16:11.240Z,-1.20
2022-12-12T06:18:39.403Z,-1.20
2022-12-12T06:21:08.346Z,-1.20
2022-12-12T06:23:36.761Z,-1.30
2022-12-12T06:26:04.748Z,-1.10
2022-12-12T06:28:32.748Z,-1.30
2022-12-12T06:31:00.634Z,-1.30
2022-12-12T06:33:31.829Z,-1.20
2022-12-12T06:36:00.233Z,-1.20
2022-12-12T06:38:28.640Z,-1.20
2022-12-12T06:40:56.471Z,-1.20
2022-12-12T06:43:24.620Z,-1.20
2022-12-12T06:45:52.537Z,-1.20
2022-12-12T06:48:20.496Z,-1.20
2022-12-12T06:50:49.679Z,-1.20
2022-12-12T06:53:17.610Z,-1.20
2022-12-12T06:55:45.414Z,-0.90
2022-12-12T06:58:13.425Z,-1.30
2022-12-12T07:00:41.465Z,-1.30
2022-12-12T07:03:10.529Z,-1.20
2022-12-12T07:05:38.399Z,-1.20
2022-12-12T07:08:07.735Z,-1.20
2022-12-12T07:10:36.640Z,-1.20
2022-12-12T07:13:04.867Z,-1.30
2022-12-12T07:15:32.736Z,-1.40
2022-12-12T07:18:00.655Z,-1.10
2022-12-12T07:20:28.485Z,-1.50
2022-12-12T07:22:56.348Z,-1.50
2022-12-12T07:25:25.837Z,-1.50
2022-12-12T07:27:53.733Z,-1.60
2022-12-12T07:30:21.608Z,-1.50
2022-12-12T07:32:49.453Z,-1.40
2022-12-12T07:35:17.352Z,-1.70
2022-12-12T07:37:45.249Z,-1.30
2022-12-12T07:40:13.462Z,-1.10
2022-12-12T07:42:42.677Z,-1.20
2022-12-12T07:45:16.515Z,-1.20
2022-12-12T07:47:46.114Z,-1.20
2022-12-12T07:50:14.205Z,-1.20
2022-12-12T07:52:42.115Z,-1.20
2022-12-12T07:55:11.284Z,-1.30
2022-12-12T07:57:39.416Z,-1.20
2022-12-12T08:00:10.005Z,-1.30
2022-12-12T08:02:37.860Z,-1.40
2022-12-12T08:05:06.142Z,-1.40
2022-12-12T08:07:34.086Z,-1.20
2022-12-12T08:10:01.936Z,-1.10
2022-12-12T08:12:30.222Z,-0.90
2022-12-12T08:14:58.516Z,-0.70
2022-12-12T08:17:27.792Z,-0.50
2022-12-12T08:19:55.649Z,-0.30
2022-12-12T08:22:23.511Z,0.00
2022-12-12T08:24:51.402Z,0.00
2022-12-12T08:27:19.238Z,0.30
2022-12-12T08:29:47.115Z,0.60
2022-12-12T08:32:14.981Z,1.00
2022-12-12T08:34:44.205Z,1.40
2022-12-12T08:39:40.403Z,2.30
2022-12-12T08:42:08.258Z,2.30
2022-12-12T08:44:36.123Z,2.60
2022-12-12T08:47:03.982Z,3.00
2022-12-12T08:49:32.102Z,3.40
2022-12-12T08:52:01.298Z,3.60
2022-12-12T08:54:29.808Z,3.90
2022-12-12T08:56:58.058Z,4.20
2022-12-12T09:01:55.367Z,5.00
2022-12-12T09:04:23.641Z,5.20
2022-12-12T09:06:51.539Z,5.90
2022-12-12T09:09:20.812Z,6.20
2022-12-12T09:11:48.649Z,6.40
2022-12-12T09:14:16.507Z,6.80
2022-12-12T09:16:44.357Z,7.20
2022-12-12T09:21:40.397Z,7.70
2022-12-12T09:24:08.687Z,8.00
2022-12-12T09:26:38.241Z,8.50
2022-12-12T09:29:06.974Z,8.60
2022-12-12T09:31:34.841Z,9.00
2022-12-12T09:34:02.729Z,9.30
2022-12-12T09:36:30.539Z,9.40
2022-12-12T09:38:58.459Z,9.60
2022-12-12T09:41:28.033Z,10.00
2022-12-12T09:43:58.797Z,10.40
2022-12-12T09:46:31.027Z,10.20
2022-12-12T09:49:03.276Z,10.00
2022-12-12T09:51:31.288Z,10.30
2022-12-12T09:53:59.461Z,11.10
2022-12-12T09:56:32.649Z,11.40
2022-12-12T09:59:04.541Z,11.60
2022-12-12T10:01:35.438Z,11.70
2022-12-12T10:06:38.001Z,12.20
2022-12-12T10:09:10.428Z,12.30
2022-12-12T10:11:51.930Z,11.90
2022-12-12T10:14:24.169Z,12.30
2022-12-12T10:16:58.089Z,12.80
2022-12-12T10:19:27.809Z,12.70
2022-12-12T10:21:57.664Z,13.50
2022-12-12T10:24:29.532Z,13.20
2022-12-12T10:29:27.398Z,13.40
2022-12-12T10:31:57.651Z,13.80
2022-12-12T10:34:33.013Z,13.40
2022-12-12T10:37:10.456Z,13.90
2022-12-12T10:39:45.061Z,14.00
2022-12-12T10:42:16.304Z,14.20
2022-12-12T10:44:50.675Z,13.70
2022-12-12T10:47:18.572Z,14.10
2022-12-12T10:49:46.490Z,15.00
2022-12-12T10:52:17.447Z,15.20
2022-12-12T10:54:47.679Z,15.70
2022-12-12T10:59:50.810Z,15.90
2022-12-12T11:02:24.339Z,16.10
2022-12-12T11:04:58.396Z,16.60
2022-12-12T11:07:26.498Z,16.60
2022-12-12T11:09:59.022Z,16.00
2022-12-12T11:12:33.414Z,15.70
2022-12-12T11:15:06.477Z,15.90
2022-12-12T11:17:34.938Z,16.80
2022-12-12T11:20:07.435Z,17.10
2022-12-12T11:22:35.428Z,16.60
2022-12-12T11:25:03.273Z,16.80
2022-12-12T11:27:32.589Z,17.40
2022-12-12T11:30:01.727Z,17.60
2022-12-12T11:32:32.024Z,17.30
2022-12-12T11:35:01.263Z,17.10
2022-12-12T11:37:39.026Z,16.70
2022-12-12T11:40:07.552Z,16.40
2022-12-12T11:42:35.758Z,16.40
2022-12-12T11:45:05.436Z,17.30
2022-12-12T11:47:40.840Z,16.90
2022-12-12T11:50:18.237Z,17.90
2022-12-12T11:52:46.297Z,17.80
2022-12-12T11:55:15.903Z,17.90
2022-12-12T11:57:52.634Z,18.30
2022-12-12T12:00:21.630Z,18.50
2022-12-12T12:03:15.197Z,17.80
2022-12-12T12:05:48.127Z,18.00
2022-12-12T12:08:25.127Z,18.60
2022-12-12T12:10:58.904Z,18.60
2022-12-12T12:13:34.929Z,18.60
2022-12-12T12:16:08.372Z,18.60
2022-12-12T12:21:15.818Z,18.10
2022-12-12T12:26:21.361Z,17.60
2022-12-12T12:29:03.091Z,17.10
2022-12-12T12:31:33.850Z,17.40
2022-12-12T12:34:05.803Z,17.50
2022-12-12T12:36:37.471Z,17.60
2022-12-12T12:39:10.437Z,17.80
2022-12-12T12:41:48.305Z,17.80
2022-12-12T12:44:23.847Z,17.60
2022-12-12T12:46:55.216Z,17.30
2022-12-12T12:49:25.864Z,17.20
2022-12-12T12:51:59.802Z,16.10
2022-12-12T12:54:31.152Z,16.00
2022-12-12T12:57:01.957Z,16.70
2022-12-12T12:59:34.869Z,17.00
2022-12-12T13:02:04.409Z,17.00
2022-12-12T13:04:35.354Z,16.50
2022-12-12T13:07:08.114Z,16.70
2022-12-12T13:09:42.053Z,16.00
2022-12-12T13:17:07.319Z,16.20
2022-12-12T13:19:38.293Z,16.70
2022-12-12T13:22:12.089Z,15.70
2022-12-12T13:24:44.739Z,15.80
2022-12-12T13:29:43.710Z,15.30
2022-12-12T13:34:42.191Z,15.00
2022-12-12T13:37:14.163Z,14.50
2022-12-12T13:39:42.037Z,14.40
2022-12-12T13:44:42.660Z,13.80
2022-12-12T13:47:13.064Z,13.70
2022-12-12T13:49:47.937Z,14.00
2022-12-12T13:57:15.945Z,13.40
2022-12-12T14:00:02.450Z,13.80
2022-12-12T14:05:08.741Z,13.90
2022-12-12T14:12:37.250Z,13.80
2022-12-12T14:17:41.755Z,12.70
2022-12-12T14:20:24.581Z,12.00
2022-12-12T14:25:21.331Z,11.70
2022-12-12T14:28:04.513Z,11.80
2022-12-12T14:33:05.145Z,11.90
2022-12-12T14:38:06.632Z,12.00
2022-12-12T14:40:34.843Z,11.60
2022-12-12T14:43:20.700Z,10.70
2022-12-12T14:45:54.373Z,10.50
2022-12-12T14:48:23.371Z,10.60
2022-12-12T14:50:53.285Z,10.60
2022-12-12T14:53:22.325Z,10.20
2022-12-12T14:55:51.639Z,10.10
2022-12-12T14:58:22.459Z,9.90
2022-12-12T15:00:51.298Z,9.60
2022-12-12T15:03:24.528Z,9.30
2022-12-12T15:06:07.300Z,9.00
2022-12-12T15:08:35.130Z,9.00
2022-12-12T15:11:03.012Z,8.70
2022-12-12T15:13:32.247Z,8.60
2022-12-12T15:16:00.194Z,8.40
2022-12-12T15:18:28.140Z,8.40
2022-12-12T15:20:57.399Z,8.20
2022-12-12T15:23:25.308Z,7.90
2022-12-12T15:25:55.084Z,7.70
2022-12-12T15:28:24.796Z,7.60
2022-12-12T15:30:55.208Z,7.30
2022-12-12T15:33:24.693Z,7.00
2022-12-12T15:35:59.547Z,6.70
2022-12-12T15:38:30.017Z,6.40
2022-12-12T15:40:58.529Z,6.20
2022-12-12T15:43:27.814Z,6.00
2022-12-12T15:48:25.664Z,5.80
2022-12-12T15:50:57.084Z,5.50
2022-12-12T15:53:26.376Z,5.60
2022-12-12T15:56:01.739Z,5.40
2022-12-12T15:58:31.248Z,5.30
2022-12-12T16:01:03.557Z,5.10
2022-12-12T16:03:32.817Z,5.10
2022-12-12T16:06:03.133Z,5.00
2022-12-12T16:08:45.572Z,4.90
2022-12-12T16:11:33.221Z,4.80
2022-12-12T16:14:01.158Z,4.80
2022-12-12T16:16:43.713Z,4.50
2022-12-12T16:19:35.561Z,4.40
2022-12-12T16:22:06.038Z,4.20
2022-12-12T16:24:34.154Z,4.10
2022-12-12T16:27:02.325Z,4.00
2022-12-12T16:29:30.196Z,3.90
2022-12-12T16:31:58.259Z,3.80
2022-12-12T16:34:26.159Z,3.80
2022-12-12T16:36:54.116Z,4.20
2022-12-12T16:39:23.343Z,3.70
2022-12-12T16:41:51.198Z,3.80
2022-12-12T16:44:19.021Z,3.80
2022-12-12T16:46:46.845Z,3.70
2022-12-12T16:49:15.611Z,3.70
2022-12-12T16:51:43.728Z,3.60
2022-12-12T16:54:15.039Z,3.50
2022-12-12T16:56:44.294Z,3.30
2022-12-12T16:59:12.120Z,3.40
2022-12-12T17:01:41.067Z,3.10
2022-12-12T17:04:16.277Z,3.00
2022-12-12T17:06:44.133Z,2.80
2022-12-12T17:09:12.036Z,2.70
2022-12-12T17:11:39.913Z,2.80
2022-12-12T17:14:12.993Z,2.70
2022-12-12T17:16:40.918Z,3.20
2022-12-12T17:19:08.772Z,2.70
2022-12-12T17:21:36.633Z,2.60
2022-12-12T17:24:05.035Z,2.60
2022-12-12T17:26:32.900Z,2.60
2022-12-12T17:29:00.805Z,2.50
2022-12-12T17:31:30.067Z,2.50
2022-12-12T17:33:58.008Z,2.30
2022-12-12T17:36:25.866Z,2.20
2022-12-12T17:38:53.933Z,2.10
2022-12-12T17:41:21.797Z,1.90
2022-12-12T17:43:55.326Z,1.90
2022-12-12T17:46:23.752Z,2.00
2022-12-12T17:48:53.694Z,1.90
2022-12-12T17:51:23.870Z,1.70
2022-12-12T17:53:52.752Z,1.70
2022-12-12T17:56:21.604Z,1.70
2022-12-12T17:58:50.350Z,1.50
2022-12-12T18:01:19.243Z,1.50
2022-12-12T18:03:47.397Z,1.40
2022-12-12T18:06:17.385Z,1.50
2022-12-12T18:08:45.672Z,1.50
2022-12-12T18:11:15.190Z,1.50
2022-12-12T18:13:43.512Z,1.50
2022-12-12T18:16:12.837Z,1.40
2022-12-12T18:18:41.238Z,1.40
2022-12-12T18:21:12.893Z,1.20
2022-12-12T18:23:45.189Z,1.20
2022-12-12T18:26:18.709Z,1.10
2022-12-12T18:28:49.936Z,1.20
2022-12-12T18:31:17.846Z,1.20
2022-12-12T18:33:47.130Z,1.10
2022-12-12T18:36:16.960Z,1.10
2022-12-12T18:38:47.891Z,1.10
2022-12-12T18:41:16.445Z,1.10
2022-12-12T18:43:44.336Z,1.00
2022-12-12T18:46:13.704Z,1.30
2022-12-12T18:48:43.135Z,0.90
2022-12-12T18:51:12.118Z,0.90
2022-12-12T18:53:41.257Z,0.90
2022-12-12T18:56:11.470Z,1.20
2022-12-12T18:58:39.412Z,0.90
2022-12-12T19:01:07.724Z,0.80
2022-12-12T19:03:36.039Z,0.80
2022-12-12T19:06:05.173Z,0.80
2022-12-12T19:08:33.111Z,0.80
2022-12-12T19:11:00.988Z,0.80
2022-12-12T19:13:31.343Z,0.70
2022-12-12T19:16:03.679Z,0.70
2022-12-12T19:18:31.653Z,0.70
2022-12-12T19:21:03.909Z,0.70
2022-12-12T19:23:31.881Z,0.70
2022-12-12T19:26:04.399Z,0.60
2022-12-12T19:28:33.762Z,0.60
2022-12-12T19:31:02.027Z,0.40
2022-12-12T19:33:30.320Z,0.50
2022-12-12T19:35:58.293Z,0.40
2022-12-12T19:38:28.003Z,0.40
2022-12-12T19:40:55.872Z,0.40
2022-12-12T19:43:23.784Z,0.40
2022-12-12T19:46:01.903Z,0.40
2022-12-12T19:48:29.784Z,0.40
2022-12-12T19:50:57.649Z,0.40
2022-12-12T19:53:25.472Z,0.40
2022-12-12T19:55:53.342Z,0.40
2022-12-12T19:58:21.193Z,0.30
2022-12-12T20:00:50.595Z,0.30
2022-12-12T20:03:21.541Z,0.30
2022-12-12T20:05:53.510Z,0.30
2022-12-12T20:08:21.608Z,0.30
2022-12-12T20:10:49.641Z,0.30
2022-12-12T20:13:17.501Z,0.30
2022-12-12T20:15:45.615Z,0.20
2022-12-12T20:18:16.508Z,0.20
2022-12-12T20:20:46.031Z,0.20
2022-12-12T20:23:13.889Z,0.20
2022-12-12T20:25:43.087Z,-0.20
2022-12-12T20:28:10.936Z,0.10
2022-12-12T20:30:38.792Z,0.10
2022-12-12T20:33:06.657Z,0.10
2022-12-12T20:35:35.173Z,0.10
2022-12-12T20:38:04.412Z,0.10
2022-12-12T20:40:32.340Z,0.10
2022-12-12T20:43:03.332Z,0.00
2022-12-12T20:45:31.657Z,0.00
2022-12-12T20:48:03.000Z,0.00
2022-12-12T20:50:35.245Z,0.00
2022-12-12T20:53:04.502Z,-0.10
2022-12-12T20:55:35.314Z,-0.10
2022-12-12T20:58:03.474Z,-0.10
2022-12-12T21:00:31.586Z,0.00
2022-12-12T21:02:59.507Z,-0.20
2022-12-12T21:05:29.804Z,-0.20
2022-12-12T21:07:57.811Z,-0.20
2022-12-12T21:10:27.139Z,-0.20
2022-12-12T21:12:55.017Z,-0.20
2022-12-12T21:15:23.102Z,-0.20
2022-12-12T21:17:50.952Z,-0.20
2022-12-12T21:20:19.005Z,-0.30
2022-12-12T21:22:46.952Z,-0.20
2022-12-12T21:25:15.043Z,-0.20
2022-12-12T21:27:44.505Z,-0.10
2022-12-12T21:30:12.555Z,-0.30
2022-12-12T21:32:40.436Z,-0.30
2022-12-12T21:35:08.662Z,-0.30
2022-12-12T21:37:40.424Z,-0.30
2022-12-12T21:40:09.354Z,-0.30
2022-12-12T21:42:37.239Z,-0.30
2022-12-12T21:45:07.622Z,-0.40
2022-12-12T21:47:36.853Z,-0.40
2022-12-12T21:50:04.881Z,-0.40
2022-12-12T21:52:32.751Z,-0.40
2022-12-12T21:55:00.601Z,-0.50
2022-12-12T21:57:28.477Z,-0.50
2022-12-12T21:59:56.313Z,-0.50
2022-12-12T22:02:25.627Z,-0.50
2022-12-12T22:04:53.541Z,-0.60
2022-12-12T22:07:21.658Z,-0.50
2022-12-12T22:09:57.642Z,-0.60
2022-12-12T22:12:37.385Z,-0.60
2022-12-12T22:15:05.510Z,-0.60
2022-12-12T22:17:34.738Z,-0.60
2022-12-12T22:20:02.573Z,-0.60
2022-12-12T22:22:30.492Z,-0.60
2022-12-12T22:24:58.373Z,-0.60
2022-12-12T22:27:26.345Z,-0.70
2022-12-12T22:29:54.187Z,-0.70
2022-12-12T22:32:22.043Z,-0.70
2022-12-12T22:34:51.351Z,-0.70
2022-12-12T22:37:19.253Z,-0.70
2022-12-12T22:39:47.130Z,-0.70
2022-12-12T22:42:14.972Z,-0.70
2022-12-12T22:44:42.835Z,-0.60
2022-12-12T22:47:10.745Z,-0.70
2022-12-12T22:49:38.677Z,-0.70
2022-12-12T22:52:07.860Z,-0.80
2022-12-12T22:54:35.787Z,-0.70
2022-12-12T22:57:03.641Z,-0.80
2022-12-12T22:59:31.467Z,-0.80
2022-12-12T23:01:59.339Z,-0.90
2022-12-12T23:04:27.241Z,-0.90
2022-12-12T23:06:55.118Z,-0.90
2022-12-12T23:09:26.263Z,-0.90
2022-12-12T23:11:54.403Z,-0.90
2022-12-12T23:14:23.403Z,-0.90
2022-12-12T23:16:51.813Z,-0.50
2022-12-12T23:19:20.921Z,-0.60
2022-12-12T23:21:48.803Z,-0.90
2022-12-12T23:24:16.895Z,-0.90
2022-12-12T23:26:46.113Z,-0.90
2022-12-12T23:29:16.429Z,-0.90
2022-12-12T23:31:44.663Z,-0.80
2022-12-12T23:34:14.892Z,-0.90
2022-12-12T23:36:43.902Z,-1.00
2022-12-12T23:39:12.378Z,-0.90
2022-12-12T23:41:40.616Z,-1.00
2022-12-12T23:44:09.890Z,-0.90
2022-12-12T23:46:37.748Z,-0.90
2022-12-12T23:49:06.860Z,-0.90
2022-12-12T23:51:35.517Z,-1.00
2022-12-12T23:54:04.329Z,-1.10
2022-12-12T23:56:32.183Z,-1.10
2022-12-12T23:59:00.620Z,-1.10
